Time;durP1;ratioP1;P1;durP2;ratioP2;P2;SDS_P1;SDS_P2;PMS_P1;PMS_P2;Temp;Humidity;BMP_temperature;BMP_pressure;BME280_temperature;BME280_humidity;BME280_pressure;Samples;Min_cycle;Max_cycle;Signal;HPM_P1;HPM_P2
2022/06/06 00:02:36;;;;;;;3.83;2.30;;;17.10;99.90;;;;;;4935649;28;20222;-72
2022/06/06 00:05:20;;;;;;;2.13;2.03;;;17.10;99.90;;;;;;4950698;28;20274;-73
2022/06/06 00:08:04;;;;;;;1.70;1.60;;;17.10;99.90;;;;;;4934941;28;20194;-73
2022/06/06 00:10:56;;;;;;;1.53;1.43;;;17.10;99.90;;;;;;4934266;28;20272;-73
2022/06/06 00:13:44;;;;;;;1.43;1.37;;;17.00;99.90;;;;;;4948077;28;20223;-73
2022/06/06 00:16:28;;;;;;;1.50;1.40;;;17.00;99.90;;;;;;4950626;28;20202;-72
2022/06/06 00:19:13;;;;;;;1.97;1.63;;;17.10;99.90;;;;;;4939369;28;20190;-73
2022/06/06 00:21:57;;;;;;;1.87;1.77;;;17.00;99.90;;;;;;4940374;28;20251;-73
2022/06/06 00:24:41;;;;;;;2.60;2.40;;;17.00;99.90;;;;;;4926428;29;20206;-73
2022/06/06 00:27:25;;;;;;;2.90;2.70;;;17.00;99.90;;;;;;4941678;28;20218;-73
2022/06/06 00:30:10;;;;;;;4.37;3.97;;;16.90;99.90;;;;;;4950211;28;20217;-72
2022/06/06 00:36:00;;;;;;;5.80;5.30;;;17.00;99.90;;;;;;4948831;28;20202;-73
2022/06/06 00:38:45;;;;;;;6.70;6.00;;;17.00;99.90;;;;;;4932843;28;20270;-73
2022/06/06 00:41:29;;;;;;;7.63;6.83;;;16.90;99.90;;;;;;4937207;28;20261;-73
2022/06/06 00:44:20;;;;;;;9.07;8.13;;;16.90;99.90;;;;;;4949724;28;20573;-72
2022/06/06 00:47:19;;;;;;;8.33;7.53;;;16.90;99.90;;;;;;4939511;28;20274;-73
2022/06/06 00:50:16;;;;;;;9.23;8.43;;;16.90;99.90;;;;;;4933654;28;20671;-73
2022/06/06 00:53:02;;;;;;;10.07;9.17;;;16.90;99.90;;;;;;4934534;28;20314;-73
2022/06/06 00:55:51;;;;;;;10.00;9.03;;;16.90;99.90;;;;;;4938074;29;20189;-73
2022/06/06 00:58:37;;;;;;;10.00;9.00;;;16.90;99.90;;;;;;4935345;28;20202;-73
2022/06/06 01:01:22;;;;;;;10.00;9.10;;;16.90;99.90;;;;;;4934458;28;20209;-73
2022/06/06 01:04:08;;;;;;;10.50;9.50;;;16.90;99.90;;;;;;4932092;28;20201;-73
2022/06/06 01:06:53;;;;;;;10.83;9.73;;;16.90;99.90;;;;;;4934115;29;20213;-73
2022/06/06 01:09:39;;;;;;;13.15;11.70;;;16.90;99.90;;;;;;4934698;28;20545;-73
2022/06/06 01:12:24;;;;;;;10.57;9.63;;;16.80;99.90;;;;;;4954872;28;20233;-72
2022/06/06 01:15:13;;;;;;;10.03;9.03;;;16.80;99.90;;;;;;4939113;28;20222;-73
2022/06/06 01:18:39;;;;;;;10.80;9.73;;;16.80;99.90;;;;;;4934744;28;20234;-73
2022/06/06 01:22:00;;;;;;;8.97;8.07;;;16.80;99.90;;;;;;4916543;28;20745;-73
2022/06/06 01:25:09;;;;;;;9.90;7.60;;;16.80;99.90;;;;;;4949603;28;20198;-74
2022/06/06 01:28:20;;;;;;;8.60;7.80;;;16.70;99.90;;;;;;4943947;28;20284;-73
2022/06/06 01:31:14;;;;;;;7.80;7.00;;;16.80;99.90;;;;;;4946214;28;20234;-72
2022/06/06 01:34:01;;;;;;;7.07;6.33;;;16.70;99.90;;;;;;4933483;28;20234;-73
2022/06/06 01:36:50;;;;;;;7.03;5.63;;;16.70;99.90;;;;;;4931665;28;20189;-72
2022/06/06 01:39:35;;;;;;;6.20;5.60;;;16.70;99.90;;;;;;4950920;28;20220;-73
2022/06/06 01:42:35;;;;;;;5.87;5.37;;;16.60;99.90;;;;;;4929888;28;20296;-72
2022/06/06 01:45:25;;;;;;;5.43;4.93;;;16.60;99.90;;;;;;4934334;28;20186;-73
2022/06/06 01:48:15;;;;;;;5.97;5.40;;;16.60;99.90;;;;;;4951339;28;20190;-72
2022/06/06 01:51:08;;;;;;;6.10;5.47;;;16.60;99.90;;;;;;4932801;28;20232;-72
2022/06/06 01:53:54;;;;;;;6.75;6.15;;;16.60;99.90;;;;;;4931650;29;20436;-71
2022/06/06 01:56:40;;;;;;;6.53;5.93;;;16.60;99.90;;;;;;4928286;29;20466;-72
2022/06/06 01:59:24;;;;;;;6.00;5.50;;;16.60;99.90;;;;;;4933867;28;20279;-72
2022/06/06 02:02:09;;;;;;;6.30;5.30;;;16.60;99.90;;;;;;4933712;28;20257;-72
2022/06/06 02:04:53;;;;;;;6.83;5.80;;;16.60;99.90;;;;;;4933491;29;20201;-72
2022/06/06 02:07:38;;;;;;;6.47;5.87;;;16.60;99.90;;;;;;4944707;28;20201;-73
2022/06/06 02:10:24;;;;;;;7.33;6.57;;;16.60;99.90;;;;;;4949238;28;20253;-72
2022/06/06 02:13:08;;;;;;;10.85;9.48;;;16.60;99.90;;;;;;4936421;28;20417;-72
2022/06/06 02:15:54;;;;;;;9.70;8.23;;;16.60;99.90;;;;;;4934644;29;20198;-73
2022/06/06 02:18:38;;;;;;;10.47;9.20;;;16.60;99.90;;;;;;4944599;28;20203;-72
2022/06/06 02:21:23;;;;;;;10.70;9.27;;;16.60;99.90;;;;;;4931392;28;20298;-72
2022/06/06 02:24:07;;;;;;;11.73;10.07;;;16.60;99.90;;;;;;4949607;28;20247;-73
2022/06/06 02:26:52;;;;;;;14.63;13.00;;;16.60;99.90;;;;;;4933827;28;20465;-72
2022/06/06 02:29:36;;;;;;;14.37;11.97;;;16.60;99.90;;;;;;4933997;28;20618;-72
2022/06/06 02:32:20;;;;;;;18.67;15.40;;;16.50;99.90;;;;;;4932877;28;20453;-72
2022/06/06 02:35:04;;;;;;;17.07;13.07;;;16.50;99.90;;;;;;4935754;28;20206;-73
2022/06/06 02:37:50;;;;;;;17.60;15.18;;;16.50;99.90;;;;;;4932057;28;20417;-72
2022/06/06 02:40:35;;;;;;;17.13;13.40;;;16.60;99.90;;;;;;4935829;28;20207;-72
2022/06/06 02:43:21;;;;;;;15.43;12.90;;;16.60;99.90;;;;;;4933913;28;20189;-72
2022/06/06 02:46:06;;;;;;;20.20;17.10;;;16.60;99.90;;;;;;4932796;28;20449;-73
2022/06/06 02:48:50;;;;;;;21.97;18.30;;;16.50;99.90;;;;;;4930897;28;20485;-72
2022/06/06 02:51:34;;;;;;;23.15;18.92;;;16.60;99.90;;;;;;4945453;28;20434;-73
2022/06/06 02:54:18;;;;;;;22.95;18.77;;;16.60;99.90;;;;;;4932062;28;20438;-72
2022/06/06 02:57:03;;;;;;;22.83;19.48;;;16.60;99.90;;;;;;4933643;28;20467;-72
2022/06/06 02:59:50;;;;;;;25.45;20.25;;;16.60;99.90;;;;;;4932941;29;20497;-72
2022/06/06 03:02:35;;;;;;;29.80;21.83;;;16.60;99.90;;;;;;4936937;28;20411;-72
2022/06/06 03:05:20;;;;;;;31.10;22.02;;;16.60;99.90;;;;;;4931916;28;20428;-72
2022/06/06 03:08:23;;;;;;;33.22;21.75;;;16.60;99.90;;;;;;4948334;28;20432;-72
2022/06/06 03:11:47;;;;;;;31.55;20.63;;;16.60;99.90;;;;;;4929220;28;20418;-72
2022/06/06 03:14:55;;;;;;;33.60;21.35;;;16.60;99.90;;;;;;4938310;28;20498;-72
2022/06/06 03:21:21;;;;;;;35.55;22.17;;;16.50;99.90;;;;;;4949668;28;20960;-72
2022/06/06 03:24:24;;;;;;;40.08;23.67;;;16.50;99.90;;;;;;4935147;28;20522;-73
2022/06/06 03:27:39;;;;;;;41.80;22.80;;;16.50;99.90;;;;;;4950885;28;20960;-73
2022/06/06 03:30:37;;;;;;;40.70;24.02;;;16.50;99.90;;;;;;4947259;28;20440;-72
2022/06/06 03:33:35;;;;;;;38.83;23.63;;;16.40;99.90;;;;;;4934267;28;20441;-72
2022/06/06 03:36:34;;;;;;;39.15;24.13;;;16.30;99.90;;;;;;4947907;28;20416;-73
2022/06/06 03:39:29;;;;;;;39.35;23.92;;;16.30;99.90;;;;;;4950209;28;20416;-72
2022/06/06 03:42:16;;;;;;;38.33;24.93;;;16.20;99.90;;;;;;4936610;28;20521;-72
2022/06/06 03:45:19;;;;;;;42.15;26.05;;;16.10;99.90;;;;;;4934707;28;20500;-73
2022/06/06 03:48:34;;;;;;;39.30;26.38;;;16.10;99.90;;;;;;4931101;28;20422;-73
2022/06/06 03:51:33;;;;;;;39.63;24.70;;;16.10;99.90;;;;;;4953966;28;20441;-72
2022/06/06 03:54:20;;;;;;;37.30;24.83;;;16.00;99.90;;;;;;4943631;28;20561;-72
2022/06/06 03:57:20;;;;;;;35.00;23.58;;;16.00;99.90;;;;;;4946903;28;20447;-72
2022/06/06 04:00:12;;;;;;;35.07;23.97;;;15.90;99.90;;;;;;4930342;28;20444;-72
2022/06/06 04:02:58;;;;;;;33.42;22.45;;;15.90;99.90;;;;;;4948526;28;20412;-73
2022/06/06 04:05:42;;;;;;;33.28;22.13;;;15.90;99.90;;;;;;4930339;29;20596;-72
2022/06/06 04:08:27;;;;;;;32.45;21.80;;;15.90;99.90;;;;;;4932038;28;20493;-73
2022/06/06 04:11:16;;;;;;;33.28;21.52;;;15.90;99.90;;;;;;4931023;28;20420;-73
2022/06/06 04:14:19;;;;;;;31.07;21.20;;;15.90;99.90;;;;;;4949159;28;20508;-73
2022/06/06 04:17:27;;;;;;;31.07;22.10;;;15.90;99.90;;;;;;4953964;28;20479;-72
2022/06/06 04:20:11;;;;;;;33.47;22.17;;;16.00;99.90;;;;;;4944117;28;20478;-72
2022/06/06 04:23:13;;;;;;;30.80;21.43;;;15.90;99.90;;;;;;4947374;28;20901;-72
2022/06/06 04:26:27;;;;;;;30.23;21.63;;;15.90;99.90;;;;;;4933545;28;20436;-72
2022/06/06 04:29:19;;;;;;;29.55;21.35;;;15.80;99.90;;;;;;4946162;28;20555;-72
2022/06/06 04:32:36;;;;;;;32.78;22.25;;;15.80;99.90;;;;;;4946802;28;20465;-73
2022/06/06 04:35:39;;;;;;;29.27;21.00;;;15.80;99.90;;;;;;4950448;28;20463;-72
2022/06/06 04:38:27;;;;;;;26.80;20.37;;;15.90;99.90;;;;;;4947869;28;20412;-72
2022/06/06 04:41:42;;;;;;;26.00;19.80;;;15.90;99.90;;;;;;4943089;28;20413;-72
2022/06/06 04:44:37;;;;;;;25.02;18.00;;;15.90;99.90;;;;;;4946671;28;20494;-73
2022/06/06 04:47:37;;;;;;;23.67;17.80;;;15.90;99.90;;;;;;4930709;28;20466;-72
2022/06/06 04:50:21;;;;;;;23.02;17.23;;;15.90;99.90;;;;;;4934898;28;20472;-71
2022/06/06 04:53:13;;;;;;;21.13;16.58;;;15.90;99.90;;;;;;4930001;28;20498;-73
2022/06/06 04:55:58;;;;;;;22.63;16.05;;;15.90;99.90;;;;;;4933267;28;20467;-72
2022/06/06 04:58:45;;;;;;;20.50;15.13;;;15.90;99.90;;;;;;4930249;28;20421;-73
2022/06/06 05:01:32;;;;;;;22.20;15.20;;;15.90;99.90;;;;;;4927755;28;20540;-72
2022/06/06 05:04:16;;;;;;;20.40;14.52;;;15.90;99.90;;;;;;4928506;28;20421;-73
2022/06/06 05:07:00;;;;;;;19.77;14.40;;;15.90;99.90;;;;;;4929543;28;20416;-73
2022/06/06 05:10:10;;;;;;;17.42;13.30;;;15.90;99.90;;;;;;4947478;28;20433;-73
2022/06/06 05:13:21;;;;;;;17.38;13.23;;;15.90;99.90;;;;;;4910732;28;20428;-74
2022/06/06 05:16:24;;;;;;;16.60;13.13;;;15.90;99.90;;;;;;4937493;28;20977;-73
2022/06/06 05:19:29;;;;;;;16.05;12.38;;;15.90;99.90;;;;;;4946138;28;20609;-73
2022/06/06 05:22:50;;;;;;;12.73;9.10;;;15.90;99.90;;;;;;4945417;28;20230;-73
2022/06/06 05:25:46;;;;;;;11.63;7.73;;;15.80;99.90;;;;;;4949202;28;20206;-72
2022/06/06 05:29:06;;;;;;;11.27;6.90;;;15.80;99.90;;;;;;4935803;28;20190;-73
2022/06/06 05:32:24;;;;;;;9.27;7.90;;;15.80;99.90;;;;;;4946348;28;20754;-73
2022/06/06 05:35:42;;;;;;;10.10;7.40;;;15.70;99.90;;;;;;4943966;28;20266;-73
2022/06/06 05:39:08;;;;;;;10.97;7.97;;;15.70;99.90;;;;;;4926201;28;20202;-73
2022/06/06 05:42:18;;;;;;;11.77;7.87;;;15.70;99.90;;;;;;4943283;28;20217;-73
2022/06/06 05:45:22;;;;;;;8.43;6.23;;;15.70;99.90;;;;;;4946388;28;20262;-73
2022/06/06 05:49:00;;;;;;;9.17;6.43;;;15.70;99.90;;;;;;4945211;28;20341;-73
2022/06/06 05:52:03;;;;;;;8.03;6.67;;;15.70;99.90;;;;;;4873274;29;20237;-73
2022/06/06 05:55:06;;;;;;;8.37;6.20;;;15.70;99.90;;;;;;4928412;29;20262;-72
2022/06/06 05:58:06;;;;;;;9.67;6.67;;;15.80;99.90;;;;;;4929478;29;20202;-72
2022/06/06 06:01:21;;;;;;;7.87;6.57;;;15.80;99.90;;;;;;4945067;28;20205;-73
2022/06/06 06:04:34;;;;;;;10.13;7.73;;;15.80;99.90;;;;;;4945407;28;20191;-73
2022/06/06 06:07:50;;;;;;;10.93;7.37;;;15.80;99.90;;;;;;4935239;28;20230;-72
2022/06/06 06:11:17;;;;;;;10.13;7.70;;;15.80;99.90;;;;;;4894561;28;20230;-72
2022/06/06 06:14:25;;;;;;;13.17;8.80;;;15.80;99.90;;;;;;4914386;28;20221;-72
2022/06/06 06:17:11;;;;;;;13.60;10.50;;;15.80;99.90;;;;;;4920235;28;20417;-72
2022/06/06 06:20:04;;;;;;;13.17;9.30;;;15.90;99.90;;;;;;4942015;28;20193;-73
2022/06/06 06:22:53;;;;;;;15.10;9.80;;;15.90;99.90;;;;;;4951765;28;20217;-72
2022/06/06 06:25:40;;;;;;;13.73;9.17;;;15.90;99.90;;;;;;4944660;28;20186;-72
2022/06/06 06:28:26;;;;;;;13.10;9.10;;;16.00;99.90;;;;;;4942082;28;20264;-73
2022/06/06 06:31:31;;;;;;;18.60;11.37;;;16.10;99.90;;;;;;4942687;28;20535;-72
2022/06/06 06:34:28;;;;;;;13.17;9.67;;;16.20;99.90;;;;;;4947517;28;20229;-73
2022/06/06 06:37:31;;;;;;;13.33;9.13;;;16.30;99.90;;;;;;4949134;28;20238;-73
2022/06/06 06:40:40;;;;;;;15.60;9.87;;;16.40;99.90;;;;;;4944652;28;20229;-73
2022/06/06 06:43:37;;;;;;;15.70;10.43;;;16.40;99.90;;;;;;4942413;28;20209;-72
2022/06/06 06:46:42;;;;;;;19.20;11.10;;;16.40;99.90;;;;;;4951922;28;20189;-73
2022/06/06 06:49:41;;;;;;;15.17;9.73;;;16.50;99.90;;;;;;4948174;28;20681;-73
2022/06/06 06:52:49;;;;;;;16.10;10.30;;;16.50;99.90;;;;;;4950106;28;20210;-73
2022/06/06 06:55:45;;;;;;;16.60;10.20;;;16.50;99.90;;;;;;4952351;28;20201;-73
2022/06/06 06:58:35;;;;;;;18.30;10.03;;;16.50;99.90;;;;;;4953994;28;20198;-72
2022/06/06 07:01:37;;;;;;;16.40;10.63;;;16.50;99.90;;;;;;4948061;28;20229;-73
2022/06/06 07:11:40;;;;;;;18.07;10.23;;;16.50;99.90;;;;;;4951413;28;20302;-74
2022/06/06 07:14:54;;;;;;;18.37;13.43;;;16.50;99.90;;;;;;4952395;28;20447;-72
2022/06/06 07:17:55;;;;;;;17.73;10.83;;;16.60;99.90;;;;;;4957169;28;20190;-73
2022/06/06 07:20:42;;;;;;;18.90;11.10;;;16.60;99.90;;;;;;4930073;28;20669;-73
2022/06/06 07:23:31;;;;;;;17.93;10.53;;;16.80;99.90;;;;;;4935050;28;20264;-72
2022/06/06 07:26:17;;;;;;;16.63;12.70;;;16.80;99.90;;;;;;4943439;28;20391;-73
2022/06/06 07:29:01;;;;;;;15.33;11.17;;;16.90;99.90;;;;;;4934462;28;20322;-73
2022/06/06 07:31:51;;;;;;;17.70;10.87;;;16.90;99.90;;;;;;4941474;29;20265;-72
2022/06/06 07:35:00;;;;;;;18.33;10.93;;;16.90;99.90;;;;;;4951237;28;20249;-72
2022/06/06 07:38:22;;;;;;;18.85;13.43;;;16.90;99.90;;;;;;4938817;28;20452;-72
2022/06/06 07:41:17;;;;;;;17.93;10.57;;;16.90;99.90;;;;;;4904754;28;20250;-73
2022/06/06 07:44:10;;;;;;;16.50;9.30;;;16.90;99.90;;;;;;4954265;28;20251;-72
2022/06/06 07:47:32;;;;;;;16.07;10.17;;;16.80;99.90;;;;;;4944960;28;20206;-73
2022/06/06 07:50:21;;;;;;;14.17;9.70;;;16.80;99.90;;;;;;4947157;28;20221;-72
2022/06/06 07:53:10;;;;;;;15.07;9.43;;;16.80;99.90;;;;;;4953921;28;20294;-72
2022/06/06 07:56:18;;;;;;;12.27;8.80;;;16.80;99.90;;;;;;4948303;28;20242;-78
2022/06/06 07:59:26;;;;;;;17.75;11.75;;;16.90;99.90;;;;;;4931639;28;20997;-72
2022/06/06 08:02:53;;;;;;;14.10;10.53;;;16.90;99.90;;;;;;4936282;28;20234;-73
2022/06/06 08:06:22;;;;;;;13.77;9.80;;;17.00;99.90;;;;;;4946286;28;20206;-74
2022/06/06 08:09:39;;;;;;;15.03;10.43;;;17.20;99.90;;;;;;4868440;29;20229;-74
2022/06/06 08:12:40;;;;;;;17.75;13.32;;;17.30;99.90;;;;;;4931713;28;20480;-73
2022/06/06 08:15:32;;;;;;;16.05;13.20;;;17.40;99.90;;;;;;4941614;28;20457;-73
2022/06/06 08:18:30;;;;;;;15.40;13.00;;;17.50;99.90;;;;;;4935950;28;20397;-73
2022/06/06 08:21:28;;;;;;;13.73;10.40;;;17.60;99.90;;;;;;4938654;28;20701;-73
2022/06/06 08:24:18;;;;;;;14.67;11.47;;;17.60;99.90;;;;;;4953982;28;20273;-73
2022/06/06 08:27:06;;;;;;;16.10;11.93;;;17.60;99.90;;;;;;4932548;28;20198;-73
2022/06/06 08:29:50;;;;;;;19.47;12.60;;;17.60;99.90;;;;;;4936110;29;20195;-73
2022/06/06 08:32:35;;;;;;;18.03;12.70;;;17.60;99.90;;;;;;4944203;28;20313;-73
2022/06/06 08:35:23;;;;;;;18.83;11.70;;;17.60;99.90;;;;;;4939494;28;20266;-74
2022/06/06 08:38:38;;;;;;;15.93;11.03;;;17.70;99.90;;;;;;4936390;28;20191;-74
2022/06/06 08:41:25;;;;;;;12.90;8.70;;;17.70;99.90;;;;;;4904073;28;20760;-74
2022/06/06 08:44:12;;;;;;;10.53;8.53;;;17.80;99.90;;;;;;4953450;28;20233;-74
2022/06/06 08:47:02;;;;;;;12.53;9.00;;;17.90;99.90;;;;;;4947987;28;20206;-73
2022/06/06 08:53:48;;;;;;;10.30;7.17;;;18.20;99.90;;;;;;4955549;28;20470;-73
2022/06/06 08:56:44;;;;;;;8.52;6.05;;;18.30;99.90;;;;;;4950413;28;20310;-74
2022/06/06 08:59:49;;;;;;;11.37;6.07;;;18.40;99.90;;;;;;4932850;28;20269;-74
2022/06/06 09:02:39;;;;;;;9.57;6.00;;;18.30;99.90;;;;;;4956100;28;20284;-74
2022/06/06 09:05:51;;;;;;;8.33;6.40;;;18.30;99.90;;;;;;4959359;28;20228;-74
2022/06/06 09:09:07;;;;;;;9.67;6.40;;;18.30;99.90;;;;;;4940065;28;20592;-73
2022/06/06 09:12:26;;;;;;;10.07;7.00;;;18.40;99.90;;;;;;4960039;28;20710;-74
2022/06/06 09:15:34;;;;;;;8.07;6.90;;;18.50;99.90;;;;;;4946650;28;20265;-74
2022/06/06 09:18:29;;;;;;;8.45;6.88;;;18.50;99.90;;;;;;4935196;28;20189;-73
2022/06/06 09:21:24;;;;;;;8.70;6.60;;;18.40;99.90;;;;;;4941518;28;20210;-74
2022/06/06 09:24:41;;;;;;;7.40;5.87;;;18.40;99.90;;;;;;4952693;28;20190;-74
2022/06/06 09:27:38;;;;;;;10.68;6.82;;;18.50;99.90;;;;;;4948298;28;20250;-74
2022/06/06 09:30:49;;;;;;;10.20;6.37;;;18.40;99.90;;;;;;4952722;28;20280;-74
2022/06/06 09:33:52;;;;;;;8.70;6.30;;;18.50;99.90;;;;;;4958587;28;20267;-73
2022/06/06 09:37:03;;;;;;;7.90;6.20;;;18.60;99.90;;;;;;4946655;28;20229;-73
2022/06/06 09:40:06;;;;;;;7.40;6.07;;;18.60;99.90;;;;;;4942961;28;20238;-73
2022/06/06 09:43:03;;;;;;;4.87;4.27;;;18.70;99.90;;;;;;4936821;29;20213;-74
2022/06/06 09:46:20;;;;;;;5.03;4.00;;;18.60;99.90;;;;;;4953732;28;20194;-77
2022/06/06 09:49:39;;;;;;;6.07;4.78;;;18.60;99.90;;;;;;4947168;28;20220;-75
2022/06/06 09:52:58;;;;;;;8.13;5.50;;;18.80;99.90;;;;;;4946160;28;20271;-74
2022/06/06 09:59:12;;;;;;;6.85;5.55;;;18.80;99.90;;;;;;4946438;28;20556;-75
2022/06/06 10:02:24;;;;;;;7.73;6.10;;;18.80;99.90;;;;;;4942845;28;20211;-74
2022/06/06 10:05:38;;;;;;;7.73;5.90;;;18.70;99.90;;;;;;4946788;28;20269;-74
2022/06/06 10:08:30;;;;;;;6.00;5.40;;;18.70;99.90;;;;;;4948612;28;20229;-74
2022/06/06 10:11:21;;;;;;;6.17;4.93;;;18.70;99.90;;;;;;4934809;28;20222;-74
2022/06/06 10:14:29;;;;;;;5.68;3.70;;;18.60;99.90;;;;;;4944779;28;20273;-74
2022/06/06 10:17:55;;;;;;;3.63;3.17;;;18.50;99.90;;;;;;4944611;28;20564;-74
2022/06/06 10:21:05;;;;;;;5.97;2.93;;;18.60;99.90;;;;;;4940003;28;20205;-74
2022/06/06 10:24:23;;;;;;;3.73;2.90;;;18.70;99.90;;;;;;4946510;28;20189;-74
2022/06/06 10:27:52;;;;;;;2.45;2.25;;;18.80;99.90;;;;;;4927520;28;20285;-74
2022/06/06 10:30:50;;;;;;;3.83;2.40;;;19.00;99.90;;;;;;4943690;28;20201;-75
2022/06/06 10:33:49;;;;;;;5.53;2.28;;;19.20;99.90;;;;;;4948720;28;20455;-75
2022/06/06 10:37:18;;;;;;;3.77;2.33;;;19.30;99.90;;;;;;4937356;28;20193;-75
2022/06/06 10:40:43;;;;;;;3.05;2.45;;;19.40;99.90;;;;;;4955806;28;20218;-74
2022/06/06 10:43:38;;;;;;;3.45;2.65;;;19.30;99.90;;;;;;4933788;28;20205;-75
2022/06/06 10:46:25;;;;;;;2.85;2.50;;;19.20;99.90;;;;;;4950811;28;20185;-74
2022/06/06 10:49:47;;;;;;;3.13;1.92;;;19.10;99.90;;;;;;4933871;28;20182;-75
2022/06/06 10:52:45;;;;;;;4.33;2.30;;;19.00;99.90;;;;;;4947003;28;20221;-75
2022/06/06 10:56:03;;;;;;;2.25;1.90;;;19.00;99.90;;;;;;4923833;28;20230;-74
2022/06/06 10:59:10;;;;;;;4.35;2.25;;;19.00;99.90;;;;;;4943080;28;20221;-75
2022/06/06 11:02:15;;;;;;;2.80;2.33;;;19.10;99.90;;;;;;4941981;28;20217;-75
2022/06/06 11:05:53;;;;;;;2.72;2.15;;;19.20;99.90;;;;;;4939890;28;20221;-74
2022/06/06 11:09:05;;;;;;;5.63;2.20;;;19.20;99.90;;;;;;4868375;29;20245;-75
2022/06/06 11:12:09;;;;;;;2.67;1.90;;;19.30;99.90;;;;;;4940154;28;20281;-74
2022/06/06 11:14:56;;;;;;;3.78;2.22;;;19.40;99.90;;;;;;4930867;29;20210;-74
2022/06/06 11:17:55;;;;;;;1.45;1.35;;;19.40;99.90;;;;;;4947912;28;20233;-74
2022/06/06 11:20:48;;;;;;;4.07;1.73;;;19.50;99.90;;;;;;4940308;28;20264;-75
2022/06/06 11:23:43;;;;;;;5.60;1.45;;;19.60;99.90;;;;;;4941802;28;20194;-74
2022/06/06 11:26:49;;;;;;;2.83;1.10;;;19.70;99.90;;;;;;4942286;28;20190;-75
2022/06/06 11:30:01;;;;;;;0.95;0.95;;;19.70;99.90;;;;;;4926869;28;20218;-74
2022/06/06 11:33:32;;;;;;;1.80;1.30;;;19.80;99.90;;;;;;4944868;28;20290;-75
2022/06/06 11:36:47;;;;;;;2.67;1.02;;;19.90;99.90;;;;;;4945131;28;20230;-75
2022/06/06 11:40:11;;;;;;;2.13;1.30;;;20.00;99.90;;;;;;4946685;28;20210;-75
2022/06/06 11:43:29;;;;;;;2.88;1.15;;;20.10;99.90;;;;;;4934749;28;20218;-75
2022/06/06 11:46:56;;;;;;;1.17;0.95;;;20.20;99.90;;;;;;4946608;28;20199;-75
2022/06/06 11:50:16;;;;;;;3.15;0.70;;;20.20;99.90;;;;;;4950972;28;20701;-75
2022/06/06 11:53:41;;;;;;;1.35;0.90;;;20.20;99.90;;;;;;4944841;28;20282;-74
2022/06/06 11:56:54;;;;;;;1.48;0.90;;;20.30;99.90;;;;;;4941000;28;20205;-75
2022/06/06 11:59:57;;;;;;;3.00;1.00;;;20.30;99.90;;;;;;4876926;29;20302;-75
2022/06/06 12:02:41;;;;;;;0.95;0.90;;;20.30;99.90;;;;;;4926617;29;20614;-74
2022/06/06 12:05:41;;;;;;;1.15;0.80;;;20.30;99.90;;;;;;4951939;28;20277;-75
2022/06/06 12:08:41;;;;;;;4.22;0.75;;;20.30;99.90;;;;;;4931297;28;20214;-75
2022/06/06 12:11:43;;;;;;;4.45;0.70;;;20.20;99.90;;;;;;4943566;28;20253;-74
2022/06/06 12:15:05;;;;;;;1.85;0.80;;;20.10;99.90;;;;;;4937166;28;20217;-75
2022/06/06 12:17:55;;;;;;;4.65;0.85;;;20.10;99.90;;;;;;4944438;28;20194;-75
2022/06/06 12:21:08;;;;;;;3.42;0.80;;;20.20;99.90;;;;;;4948708;28;20194;-75
2022/06/06 12:24:17;;;;;;;1.83;0.77;;;20.10;99.90;;;;;;4940253;28;20231;-75
2022/06/06 12:27:24;;;;;;;3.50;0.85;;;20.20;99.90;;;;;;4941479;28;20198;-75
2022/06/06 12:30:18;;;;;;;2.35;0.70;;;20.30;99.90;;;;;;4948081;28;20194;-75
2022/06/06 12:33:18;;;;;;;3.63;0.70;;;20.40;99.90;;;;;;4929231;28;20214;-75
2022/06/06 12:36:27;;;;;;;1.20;0.80;;;20.50;99.90;;;;;;4923434;28;20206;-75
2022/06/06 12:39:32;;;;;;;1.67;0.55;;;20.60;99.90;;;;;;4932113;28;20413;-75
2022/06/06 12:42:38;;;;;;;0.93;0.70;;;20.60;99.90;;;;;;4932038;28;20217;-76
2022/06/06 12:45:41;;;;;;;0.77;0.60;;;20.50;99.90;;;;;;4951720;28;20246;-75
2022/06/06 12:48:43;;;;;;;1.30;0.88;;;20.60;99.90;;;;;;4948615;28;20197;-75
2022/06/06 12:51:55;;;;;;;0.82;0.70;;;20.60;99.90;;;;;;4945981;28;20269;-75
2022/06/06 12:58:12;;;;;;;1.63;0.50;;;20.40;99.90;;;;;;4942395;28;20199;-75
2022/06/06 13:04:21;;;;;;;1.60;0.70;;;20.20;99.90;;;;;;4945237;28;20588;-75
2022/06/06 13:07:23;;;;;;;2.40;0.60;;;20.10;99.90;;;;;;4936240;28;20222;-75
2022/06/06 13:10:43;;;;;;;0.80;0.77;;;20.00;99.90;;;;;;4931937;28;20209;-75
2022/06/06 13:13:36;;;;;;;2.53;0.70;;;20.10;99.90;;;;;;4877548;28;20229;-74
2022/06/06 13:16:40;;;;;;;1.20;0.50;;;20.10;99.90;;;;;;4946941;28;20190;-74
2022/06/06 13:20:04;;;;;;;0.75;0.70;;;20.20;99.90;;;;;;4950223;28;20643;-74
2022/06/06 13:23:11;;;;;;;2.13;0.60;;;20.40;99.90;;;;;;4930314;28;20219;-74
2022/06/06 13:26:01;;;;;;;0.80;0.70;;;20.60;99.90;;;;;;4939525;28;20194;-74
2022/06/06 13:28:55;;;;;;;3.20;0.70;;;20.70;99.90;;;;;;4948475;28;20189;-75
2022/06/06 13:32:04;;;;;;;4.30;0.70;;;20.70;99.90;;;;;;4937912;28;20217;-74
2022/06/06 13:35:07;;;;;;;2.30;0.60;;;20.80;99.90;;;;;;4933640;28;20214;-74
2022/06/06 13:38:03;;;;;;;2.08;0.52;;;20.90;99.90;;;;;;4943374;28;20274;-74
2022/06/06 13:41:23;;;;;;;6.53;0.80;;;20.90;99.90;;;;;;4945046;28;20221;-74
2022/06/06 13:44:32;;;;;;;5.68;0.80;;;21.00;99.90;;;;;;4904655;28;20269;-74
2022/06/06 13:47:26;;;;;;;1.63;0.80;;;21.10;99.90;;;;;;4947208;28;20211;-74
2022/06/06 13:50:31;;;;;;;0.55;0.55;;;21.20;99.90;;;;;;4934314;28;20194;-74
2022/06/06 13:53:32;;;;;;;2.58;0.70;;;21.20;99.90;;;;;;4949859;28;20197;-75
2022/06/06 13:56:41;;;;;;;3.55;0.68;;;21.10;99.90;;;;;;4949443;28;20206;-75
2022/06/06 13:59:48;;;;;;;0.90;0.63;;;21.10;99.90;;;;;;4933130;28;20201;-75
2022/06/06 14:02:52;;;;;;;4.03;0.80;;;21.10;99.90;;;;;;4939899;28;20217;-74
2022/06/06 14:06:25;;;;;;;4.07;0.60;;;21.10;99.90;;;;;;4947150;28;20210;-74
2022/06/06 14:09:14;;;;;;;3.90;0.80;;;21.20;99.90;;;;;;4943452;28;20193;-74
2022/06/06 14:12:06;;;;;;;3.88;0.50;;;21.30;99.90;;;;;;4933519;28;20213;-75
2022/06/06 14:14:58;;;;;;;0.47;0.40;;;21.30;99.90;;;;;;4932399;29;20210;-74
2022/06/06 14:17:49;;;;;;;0.75;0.50;;;21.30;99.90;;;;;;4937805;29;20209;-73
2022/06/06 14:20:42;;;;;;;1.35;0.60;;;21.30;99.90;;;;;;4931458;28;20266;-76
2022/06/06 14:23:35;;;;;;;0.63;0.63;;;21.20;99.90;;;;;;4944822;28;20194;-75
2022/06/06 14:26:21;;;;;;;1.00;0.50;;;21.20;99.90;;;;;;4950180;28;20193;-75
2022/06/06 14:29:13;;;;;;;1.40;0.50;;;21.20;99.90;;;;;;4950266;28;20273;-76
2022/06/06 14:32:02;;;;;;;2.08;0.52;;;21.20;99.90;;;;;;4941313;28;20294;-75
2022/06/06 14:34:48;;;;;;;2.83;0.90;;;21.10;99.90;;;;;;4950066;28;20280;-77
2022/06/06 14:37:34;;;;;;;0.77;0.60;;;21.10;99.90;;;;;;4931483;28;20282;-75
2022/06/06 14:40:41;;;;;;;0.75;0.52;;;21.00;99.90;;;;;;4928050;28;20274;-74
2022/06/06 14:43:31;;;;;;;0.50;0.50;;;21.00;99.90;;;;;;4936228;28;20197;-74
2022/06/06 14:46:16;;;;;;;4.43;0.60;;;20.90;99.90;;;;;;4949808;28;20237;-74
2022/06/06 14:49:01;;;;;;;1.92;0.60;;;20.80;99.90;;;;;;4946758;28;20212;-74
2022/06/06 14:51:47;;;;;;;0.82;0.50;;;20.80;99.90;;;;;;4935528;29;20209;-74
2022/06/06 14:54:31;;;;;;;1.27;0.40;;;20.80;99.90;;;;;;4936970;28;20265;-74
2022/06/06 14:57:15;;;;;;;1.42;0.60;;;20.90;99.90;;;;;;4933666;28;20583;-73
2022/06/06 15:00:02;;;;;;;4.40;0.55;;;20.80;99.90;;;;;;4943664;28;20555;-73
2022/06/06 15:03:04;;;;;;;0.88;0.50;;;20.70;99.90;;;;;;4953091;28;20221;-74
2022/06/06 15:05:49;;;;;;;5.43;0.47;;;20.70;99.90;;;;;;4935177;28;20261;-74
2022/06/06 15:08:37;;;;;;;0.95;0.50;;;20.70;99.90;;;;;;4937473;28;20198;-74
2022/06/06 15:11:24;;;;;;;1.50;0.47;;;20.70;99.90;;;;;;4951052;28;20273;-74
2022/06/06 15:14:17;;;;;;;1.83;0.82;;;20.70;99.90;;;;;;4953884;28;20237;-73
2022/06/06 15:17:11;;;;;;;1.67;0.68;;;20.70;99.90;;;;;;4948513;28;20250;-73
2022/06/06 15:20:03;;;;;;;1.13;0.50;;;20.80;99.90;;;;;;4934970;28;20230;-74
2022/06/06 15:22:48;;;;;;;0.40;0.40;;;20.90;99.90;;;;;;4956477;28;20225;-73
2022/06/06 15:25:42;;;;;;;0.50;0.50;;;20.80;99.90;;;;;;4950755;28;20273;-74
2022/06/06 15:28:38;;;;;;;0.85;0.60;;;20.80;99.90;;;;;;4944666;28;20245;-74
2022/06/06 15:31:28;;;;;;;0.82;0.55;;;20.80;99.90;;;;;;4957817;28;20221;-74
2022/06/06 15:34:36;;;;;;;1.17;0.60;;;20.70;99.90;;;;;;4949456;28;20295;-74
2022/06/06 15:37:52;;;;;;;2.42;0.70;;;20.70;99.90;;;;;;4947874;28;20188;-75
2022/06/06 15:40:46;;;;;;;0.68;0.50;;;20.70;99.90;;;;;;4939486;28;20237;-74
2022/06/06 15:43:55;;;;;;;0.70;0.60;;;20.70;99.90;;;;;;4940941;28;20202;-74
2022/06/06 15:47:03;;;;;;;4.05;0.77;;;20.50;99.90;;;;;;4944271;28;20190;-74
2022/06/06 15:50:13;;;;;;;7.05;1.10;;;20.50;99.90;;;;;;4956585;28;20207;-73